sensor_id;sensor_type;location;lat;lon;timestamp;pressure;altitude;pressure_sealevel;temperature
63297;BMP280;49419;51.716;-4.948;2023-01-05T00:02:27;101693.56;;;13.48
63297;BMP280;49419;51.716;-4.948;2023-01-05T00:10:00;101688.84;;;13.38
63297;BMP280;49419;51.716;-4.948;2023-01-05T00:12:56;101685.34;;;13.36
63297;BMP280;49419;51.716;-4.948;2023-01-05T00:15:42;101707.84;;;13.40
63297;BMP280;49419;51.716;-4.948;2023-01-05T00:18:27;101693.09;;;13.36
63297;BMP280;49419;51.716;-4.948;2023-01-05T00:21:18;101683.84;;;13.41
63297;BMP280;49419;51.716;-4.948;2023-01-05T00:24:11;101690.66;;;13.40
63297;BMP280;49419;51.716;-4.948;2023-01-05T00:26:40;101704.59;;;13.44
63297;BMP280;49419;51.716;-4.948;2023-01-05T00:29:05;101686.28;;;13.38
63297;BMP280;49419;51.716;-4.948;2023-01-05T00:31:34;101700.38;;;13.46
63297;BMP280;49419;51.716;-4.948;2023-01-05T00:34:01;101685.59;;;13.42
63297;BMP280;49419;51.716;-4.948;2023-01-05T00:36:29;101697.91;;;13.49
63297;BMP280;49419;51.716;-4.948;2023-01-05T00:38:55;101693.50;;;13.46
63297;BMP280;49419;51.716;-4.948;2023-01-05T00:41:21;101692.63;;;13.46
63297;BMP280;49419;51.716;-4.948;2023-01-05T00:43:49;101689.34;;;13.49
63297;BMP280;49419;51.716;-4.948;2023-01-05T00:46:15;101696.22;;;13.49
63297;BMP280;49419;51.716;-4.948;2023-01-05T00:48:41;101683.38;;;13.50
63297;BMP280;49419;51.716;-4.948;2023-01-05T00:51:10;101683.50;;;13.53
63297;BMP280;49419;51.716;-4.948;2023-01-05T00:53:36;101680.91;;;13.53
63297;BMP280;49419;51.716;-4.948;2023-01-05T00:56:04;101667.94;;;13.52
63297;BMP280;49419;51.716;-4.948;2023-01-05T00:58:35;101681.03;;;13.56
63297;BMP280;49419;51.716;-4.948;2023-01-05T01:01:08;101675.94;;;13.58
63297;BMP280;49419;51.716;-4.948;2023-01-05T01:03:36;101676.75;;;13.57
63297;BMP280;49419;51.716;-4.948;2023-01-05T01:06:01;101671.56;;;13.55
63297;BMP280;49419;51.716;-4.948;2023-01-05T01:08:28;101656.84;;;13.53
63297;BMP280;49419;51.716;-4.948;2023-01-05T01:11:07;101661.22;;;13.55
63297;BMP280;49419;51.716;-4.948;2023-01-05T01:13:36;101654.19;;;13.51
63297;BMP280;49419;51.716;-4.948;2023-01-05T01:16:11;101659.44;;;13.54
63297;BMP280;49419;51.716;-4.948;2023-01-05T01:18:38;101658.66;;;13.55
63297;BMP280;49419;51.716;-4.948;2023-01-05T01:21:10;101649.97;;;13.53
63297;BMP280;49419;51.716;-4.948;2023-01-05T01:23:39;101651.88;;;13.57
63297;BMP280;49419;51.716;-4.948;2023-01-05T01:26:11;101643.06;;;13.52
63297;BMP280;49419;51.716;-4.948;2023-01-05T01:28:37;101652.75;;;13.58
63297;BMP280;49419;51.716;-4.948;2023-01-05T01:31:05;101641.47;;;13.56
63297;BMP280;49419;51.716;-4.948;2023-01-05T01:33:37;101652.78;;;13.59
63297;BMP280;49419;51.716;-4.948;2023-01-05T01:36:09;101660.50;;;13.59
63297;BMP280;49419;51.716;-4.948;2023-01-05T01:38:35;101655.34;;;13.59
63297;BMP280;49419;51.716;-4.948;2023-01-05T01:41:02;101651.88;;;13.57
63297;BMP280;49419;51.716;-4.948;2023-01-05T01:43:50;101647.56;;;13.58
63297;BMP280;49419;51.716;-4.948;2023-01-05T01:46:18;101652.84;;;13.61
63297;BMP280;49419;51.716;-4.948;2023-01-05T01:48:49;101647.69;;;13.61
63297;BMP280;49419;51.716;-4.948;2023-01-05T01:51:42;101646.72;;;13.57
63297;BMP280;49419;51.716;-4.948;2023-01-05T01:54:15;101651.13;;;13.61
63297;BMP280;49419;51.716;-4.948;2023-01-05T01:56:46;101645.00;;;13.58
63297;BMP280;49419;51.716;-4.948;2023-01-05T01:59:17;101641.53;;;13.57
63297;BMP280;49419;51.716;-4.948;2023-01-05T02:01:47;101643.41;;;13.61
63297;BMP280;49419;51.716;-4.948;2023-01-05T02:04:31;101657.16;;;13.62
63297;BMP280;49419;51.716;-4.948;2023-01-05T02:07:01;101652.84;;;13.61
63297;BMP280;49419;51.716;-4.948;2023-01-05T02:09:27;101645.03;;;13.59
63297;BMP280;49419;51.716;-4.948;2023-01-05T02:20:14;101656.59;;;13.69
63297;BMP280;49419;51.716;-4.948;2023-01-05T02:32:08;101663.41;;;13.67
63297;BMP280;49419;51.716;-4.948;2023-01-05T02:34:50;101674.72;;;13.70
63297;BMP280;49419;51.716;-4.948;2023-01-05T02:37:42;101669.63;;;13.72
63297;BMP280;49419;51.716;-4.948;2023-01-05T02:40:26;101664.41;;;13.70
63297;BMP280;49419;51.716;-4.948;2023-01-05T02:42:54;101659.13;;;13.67
63297;BMP280;49419;51.716;-4.948;2023-01-05T02:45:22;101671.47;;;13.74
63297;BMP280;49419;51.716;-4.948;2023-01-05T02:48:05;101662.00;;;13.75
63297;BMP280;49419;51.716;-4.948;2023-01-05T02:50:36;101669.69;;;13.73
63297;BMP280;49419;51.716;-4.948;2023-01-05T02:55:44;101664.41;;;13.70
63297;BMP280;49419;51.716;-4.948;2023-01-05T02:58:18;101666.16;;;13.71
63297;BMP280;49419;51.716;-4.948;2023-01-05T03:00:54;101661.75;;;13.69
63297;BMP280;49419;51.716;-4.948;2023-01-05T03:03:38;101653.03;;;13.65
63297;BMP280;49419;51.716;-4.948;2023-01-05T03:06:35;101664.16;;;13.64
63297;BMP280;49419;51.716;-4.948;2023-01-05T03:09:15;101652.84;;;13.61
63297;BMP280;49419;51.716;-4.948;2023-01-05T03:15:12;101644.94;;;13.56
63297;BMP280;49419;51.716;-4.948;2023-01-05T03:17:43;101648.34;;;13.55
63297;BMP280;49419;51.716;-4.948;2023-01-05T03:20:15;101655.13;;;13.53
63297;BMP280;49419;51.716;-4.948;2023-01-05T03:22:43;101648.97;;;13.50
63297;BMP280;49419;51.716;-4.948;2023-01-05T03:25:29;101641.09;;;13.47
63297;BMP280;49419;51.716;-4.948;2023-01-05T03:28:21;101648.91;;;13.49
63297;BMP280;49419;51.716;-4.948;2023-01-05T03:31:13;101639.53;;;13.50
63297;BMP280;49419;51.716;-4.948;2023-01-05T03:34:20;101643.06;;;13.52
63297;BMP280;49419;51.716;-4.948;2023-01-05T03:39:38;101629.84;;;13.45
63297;BMP280;49419;51.716;-4.948;2023-01-05T03:42:09;101623.91;;;13.48
63297;BMP280;49419;51.716;-4.948;2023-01-05T03:44:48;101628.47;;;13.53
63297;BMP280;49419;51.716;-4.948;2023-01-05T03:47:26;101638.78;;;13.53
63297;BMP280;49419;51.716;-4.948;2023-01-05T03:49:58;101628.16;;;13.46
63297;BMP280;49419;51.716;-4.948;2023-01-05T03:52:28;101618.53;;;13.42
63297;BMP280;49419;51.716;-4.948;2023-01-05T03:54:55;101593.22;;;13.32
63297;BMP280;49419;51.716;-4.948;2023-01-05T03:57:21;101608.91;;;13.38
63297;BMP280;49419;51.716;-4.948;2023-01-05T03:59:46;101600.19;;;13.34
63297;BMP280;49419;51.716;-4.948;2023-01-05T04:02:13;101597.41;;;13.30
63297;BMP280;49419;51.716;-4.948;2023-01-05T04:04:43;101587.88;;;13.27
63297;BMP280;49419;51.716;-4.948;2023-01-05T04:07:13;101593.91;;;13.28
63297;BMP280;49419;51.716;-4.948;2023-01-05T04:09:40;101595.09;;;13.36
63297;BMP280;49419;51.716;-4.948;2023-01-05T04:12:10;101601.13;;;13.36
63297;BMP280;49419;51.716;-4.948;2023-01-05T04:14:47;101587.41;;;13.37
63297;BMP280;49419;51.716;-4.948;2023-01-05T04:20:05;101581.50;;;13.40
63297;BMP280;49419;51.716;-4.948;2023-01-05T04:22:34;101582.44;;;13.42
63297;BMP280;49419;51.716;-4.948;2023-01-05T04:25:00;101579.16;;;13.46
63297;BMP280;49419;51.716;-4.948;2023-01-05T04:27:27;101576.78;;;13.50
63297;BMP280;49419;51.716;-4.948;2023-01-05T04:29:53;101572.47;;;13.50
63297;BMP280;49419;51.716;-4.948;2023-01-05T04:32:18;101572.53;;;13.52
63297;BMP280;49419;51.716;-4.948;2023-01-05T04:34:46;101577.00;;;13.56
63297;BMP280;49419;51.716;-4.948;2023-01-05T04:37:11;101570.19;;;13.58
63297;BMP280;49419;51.716;-4.948;2023-01-05T04:39:38;101580.78;;;13.65
63297;BMP280;49419;51.716;-4.948;2023-01-05T04:42:05;101571.41;;;13.67
63297;BMP280;49419;51.716;-4.948;2023-01-05T04:44:32;101574.03;;;13.69
63297;BMP280;49419;51.716;-4.948;2023-01-05T04:47:01;101568.13;;;13.71
63297;BMP280;49419;51.716;-4.948;2023-01-05T04:49:26;101569.78;;;13.69
63297;BMP280;49419;51.716;-4.948;2023-01-05T04:51:56;101572.38;;;13.69
63297;BMP280;49419;51.716;-4.948;2023-01-05T04:54:21;101575.94;;;13.73
63297;BMP280;49419;51.716;-4.948;2023-01-05T04:56:47;101562.09;;;13.71
63297;BMP280;49419;51.716;-4.948;2023-01-05T04:59:14;101570.69;;;13.71
63297;BMP280;49419;51.716;-4.948;2023-01-05T05:01:43;101566.47;;;13.73
63297;BMP280;49419;51.716;-4.948;2023-01-05T05:04:15;101559.56;;;13.72
63297;BMP280;49419;51.716;-4.948;2023-01-05T05:06:49;101564.72;;;13.72
63297;BMP280;49419;51.716;-4.948;2023-01-05T05:09:18;101563.78;;;13.70
63297;BMP280;49419;51.716;-4.948;2023-01-05T05:11:46;101557.66;;;13.67
63297;BMP280;49419;51.716;-4.948;2023-01-05T05:14:16;101566.28;;;13.69
63297;BMP280;49419;51.716;-4.948;2023-01-05T05:16:54;101568.13;;;13.71
63297;BMP280;49419;51.716;-4.948;2023-01-05T05:19:31;101553.47;;;13.70
63297;BMP280;49419;51.716;-4.948;2023-01-05T05:22:00;101557.09;;;13.75
63297;BMP280;49419;51.716;-4.948;2023-01-05T05:24:32;101540.47;;;13.67
63297;BMP280;49419;51.716;-4.948;2023-01-05T05:27:00;101549.34;;;13.75
63297;BMP280;49419;51.716;-4.948;2023-01-05T05:29:26;101552.81;;;13.76
63297;BMP280;49419;51.716;-4.948;2023-01-05T05:32:03;101555.56;;;13.80
63297;BMP280;49419;51.716;-4.948;2023-01-05T05:39:41;101559.03;;;13.81
63297;BMP280;49419;51.716;-4.948;2023-01-05T05:42:14;101560.78;;;13.82
63297;BMP280;49419;51.716;-4.948;2023-01-05T05:44:44;101551.88;;;13.74
63297;BMP280;49419;51.716;-4.948;2023-01-05T05:47:16;101551.25;;;13.79
63297;BMP280;49419;51.716;-4.948;2023-01-05T05:49:41;101547.81;;;13.80
63297;BMP280;49419;51.716;-4.948;2023-01-05T05:52:07;101544.38;;;13.80
63297;BMP280;49419;51.716;-4.948;2023-01-05T05:59:37;101525.47;;;13.81
63297;BMP280;49419;51.716;-4.948;2023-01-05T06:02:03;101544.53;;;13.84
63297;BMP280;49419;51.716;-4.948;2023-01-05T06:04:31;101551.44;;;13.85
63297;BMP280;49419;51.716;-4.948;2023-01-05T06:07:04;101546.38;;;13.88
63297;BMP280;49419;51.716;-4.948;2023-01-05T06:09:29;101542.00;;;13.85
63297;BMP280;49419;51.716;-4.948;2023-01-05T06:12:02;101543.81;;;13.88
63297;BMP280;49419;51.716;-4.948;2023-01-05T06:14:35;101537.75;;;13.86
63297;BMP280;49419;51.716;-4.948;2023-01-05T06:17:11;101548.28;;;13.92
63297;BMP280;49419;51.716;-4.948;2023-01-05T06:19:36;101553.34;;;13.89
63297;BMP280;49419;51.716;-4.948;2023-01-05T06:22:24;101541.97;;;13.84
63297;BMP280;49419;51.716;-4.948;2023-01-05T06:24:50;101537.84;;;13.89
63297;BMP280;49419;51.716;-4.948;2023-01-05T06:27:38;101543.88;;;13.89
63297;BMP280;49419;51.716;-4.948;2023-01-05T06:30:05;101547.22;;;13.87
63297;BMP280;49419;51.716;-4.948;2023-01-05T06:35:04;101533.47;;;13.86
63297;BMP280;49419;51.716;-4.948;2023-01-05T06:42:46;101522.38;;;13.89
63297;BMP280;49419;51.716;-4.948;2023-01-05T06:45:14;101531.66;;;13.84
63297;BMP280;49419;51.716;-4.948;2023-01-05T06:47:43;101532.69;;;13.89
63297;BMP280;49419;51.716;-4.948;2023-01-05T06:50:13;101531.84;;;13.90
63297;BMP280;49419;51.716;-4.948;2023-01-05T06:52:38;101531.03;;;13.91
63297;BMP280;49419;51.716;-4.948;2023-01-05T06:55:11;101521.50;;;13.88
63297;BMP280;49419;51.716;-4.948;2023-01-05T06:57:37;101524.97;;;13.90
63297;BMP280;49419;51.716;-4.948;2023-01-05T07:00:07;101517.09;;;13.86
63297;BMP280;49419;51.716;-4.948;2023-01-05T07:02:33;101517.97;;;13.86
63297;BMP280;49419;51.716;-4.948;2023-01-05T07:04:59;101523.22;;;13.89
63297;BMP280;49419;51.716;-4.948;2023-01-05T07:07:24;101513.69;;;13.87
63297;BMP280;49419;51.716;-4.948;2023-01-05T07:09:52;101513.69;;;13.87
63297;BMP280;49419;51.716;-4.948;2023-01-05T07:12:18;101514.53;;;13.86
63297;BMP280;49419;51.716;-4.948;2023-01-05T07:14:52;101507.41;;;13.81
63297;BMP280;49419;51.716;-4.948;2023-01-05T07:17:28;101518.84;;;13.87
63297;BMP280;49419;51.716;-4.948;2023-01-05T07:19:57;101509.28;;;13.84
63297;BMP280;49419;51.716;-4.948;2023-01-05T07:22:41;101511.16;;;13.88
63297;BMP280;49419;51.716;-4.948;2023-01-05T07:25:07;101520.72;;;13.91
63297;BMP280;49419;51.716;-4.948;2023-01-05T07:27:36;101507.69;;;13.88
63297;BMP280;49419;51.716;-4.948;2023-01-05T07:30:10;101503.13;;;13.81
63297;BMP280;49419;51.716;-4.948;2023-01-05T07:32:43;101523.34;;;13.92
63297;BMP280;49419;51.716;-4.948;2023-01-05T07:35:09;101513.69;;;13.87
63297;BMP280;49419;51.716;-4.948;2023-01-05T07:37:35;101520.59;;;13.88
63297;BMP280;49419;51.716;-4.948;2023-01-05T07:40:09;101516.25;;;13.87
63297;BMP280;49419;51.716;-4.948;2023-01-05T07:42:42;101529.28;;;13.90
63297;BMP280;49419;51.716;-4.948;2023-01-05T07:45:10;101525.75;;;13.88
63297;BMP280;49419;51.716;-4.948;2023-01-05T07:47:38;101530.03;;;13.87
63297;BMP280;49419;51.716;-4.948;2023-01-05T07:50:12;101530.13;;;13.90
63297;BMP280;49419;51.716;-4.948;2023-01-05T07:52:54;101522.38;;;13.89
63297;BMP280;49419;51.716;-4.948;2023-01-05T07:55:24;101518.84;;;13.87
63297;BMP280;49419;51.716;-4.948;2023-01-05T07:57:51;101511.94;;;13.86
63297;BMP280;49419;51.716;-4.948;2023-01-05T08:00:21;101506.66;;;13.83
63297;BMP280;49419;51.716;-4.948;2023-01-05T08:02:46;101503.25;;;13.84
63297;BMP280;49419;51.716;-4.948;2023-01-05T08:05:12;101501.31;;;13.79
63297;BMP280;49419;51.716;-4.948;2023-01-05T08:07:47;101515.16;;;13.81
63297;BMP280;49419;51.716;-4.948;2023-01-05T08:10:15;101499.50;;;13.76
63297;BMP280;49419;51.716;-4.948;2023-01-05T08:12:54;101503.03;;;13.78
63297;BMP280;49419;51.716;-4.948;2023-01-05T08:15:43;101508.28;;;13.81
63297;BMP280;49419;51.716;-4.948;2023-01-05T08:18:12;101511.69;;;13.80
63297;BMP280;49419;51.716;-4.948;2023-01-05T08:20:38;101499.63;;;13.79
63297;BMP280;49419;51.716;-4.948;2023-01-05T08:23:25;101508.06;;;13.75
63297;BMP280;49419;51.716;-4.948;2023-01-05T08:25:52;101509.72;;;13.73
63297;BMP280;49419;51.716;-4.948;2023-01-05T08:28:23;101520.28;;;13.79
63297;BMP280;49419;51.716;-4.948;2023-01-05T08:30:52;101505.44;;;13.74
63297;BMP280;49419;51.716;-4.948;2023-01-05T08:33:26;101515.13;;;13.79
63297;BMP280;49419;51.716;-4.948;2023-01-05T08:35:56;101514.19;;;13.77
63297;BMP280;49419;51.716;-4.948;2023-01-05T08:38:46;101508.78;;;13.71
63297;BMP280;49419;51.716;-4.948;2023-01-05T08:41:19;101502.72;;;13.69
63297;BMP280;49419;51.716;-4.948;2023-01-05T08:43:53;101514.09;;;13.76
63297;BMP280;49419;51.716;-4.948;2023-01-05T08:46:34;101510.66;;;13.75
63297;BMP280;49419;51.716;-4.948;2023-01-05T08:49:05;101519.16;;;13.73
63297;BMP280;49419;51.716;-4.948;2023-01-05T08:51:34;101530.47;;;13.76
63297;BMP280;49419;51.716;-4.948;2023-01-05T08:54:00;101515.75;;;13.74
63297;BMP280;49419;51.716;-4.948;2023-01-05T08:56:29;101532.25;;;13.77
63297;BMP280;49419;51.716;-4.948;2023-01-05T08:59:03;101517.53;;;13.75
63297;BMP280;49419;51.716;-4.948;2023-01-05T09:01:29;101521.03;;;13.77
63297;BMP280;49419;51.716;-4.948;2023-01-05T09:03:59;101511.50;;;13.74
63297;BMP280;49419;51.716;-4.948;2023-01-05T09:06:26;101509.72;;;13.73
63297;BMP280;49419;51.716;-4.948;2023-01-05T09:08:53;101509.72;;;13.73
63297;BMP280;49419;51.716;-4.948;2023-01-05T09:11:23;101519.50;;;13.82
63297;BMP280;49419;51.716;-4.948;2023-01-05T09:16:31;101520.31;;;13.81
63297;BMP280;49419;51.716;-4.948;2023-01-05T09:19:02;101513.44;;;13.81
63297;BMP280;49419;51.716;-4.948;2023-01-05T09:24:10;101516.09;;;13.82
63297;BMP280;49419;51.716;-4.948;2023-01-05T09:27:05;101514.53;;;13.86
63297;BMP280;49419;51.716;-4.948;2023-01-05T09:29:35;101509.19;;;13.82
63297;BMP280;49419;51.716;-4.948;2023-01-05T09:32:07;101508.53;;;13.87
63297;BMP280;49419;51.716;-4.948;2023-01-05T09:34:36;101504.84;;;13.81
63297;BMP280;49419;51.716;-4.948;2023-01-05T09:37:16;101509.28;;;13.84
63297;BMP280;49419;51.716;-4.948;2023-01-05T09:39:57;101512.84;;;13.88
63297;BMP280;49419;51.716;-4.948;2023-01-05T09:42:28;101520.66;;;13.89
63297;BMP280;49419;51.716;-4.948;2023-01-05T09:45:04;101492.16;;;13.86
63297;BMP280;49419;51.716;-4.948;2023-01-05T09:47:41;101491.59;;;13.95
63297;BMP280;49419;51.716;-4.948;2023-01-05T09:50:22;101489.16;;;13.98
63297;BMP280;49419;51.716;-4.948;2023-01-05T09:52:49;101503.91;;;14.00
63297;BMP280;49419;51.716;-4.948;2023-01-05T09:55:24;101493.50;;;13.99
63297;BMP280;49419;51.716;-4.948;2023-01-05T09:58:20;101482.13;;;13.94
63297;BMP280;49419;51.716;-4.948;2023-01-05T10:01:15;101493.50;;;13.99
63297;BMP280;49419;51.716;-4.948;2023-01-05T10:06:44;101499.47;;;13.98
63297;BMP280;49419;51.716;-4.948;2023-01-05T10:09:36;101488.06;;;13.93
63297;BMP280;49419;51.716;-4.948;2023-01-05T10:12:47;101493.25;;;13.93
63297;BMP280;49419;51.716;-4.948;2023-01-05T10:15:51;101492.47;;;13.95
63297;BMP280;49419;51.716;-4.948;2023-01-05T10:18:41;101496.91;;;13.98
63297;BMP280;49419;51.716;-4.948;2023-01-05T10:21:35;101495.22;;;13.98
63297;BMP280;49419;51.716;-4.948;2023-01-05T10:24:34;101491.97;;;14.04
63297;BMP280;49419;51.716;-4.948;2023-01-05T10:27:19;101482.59;;;14.06
63297;BMP280;49419;51.716;-4.948;2023-01-05T10:29:58;101480.00;;;14.06
63297;BMP280;49419;51.716;-4.948;2023-01-05T10:41:27;101480.88;;;14.06
63297;BMP280;49419;51.716;-4.948;2023-01-05T10:46:55;101469.59;;;14.04
63297;BMP280;49419;51.716;-4.948;2023-01-05T10:49:29;101462.59;;;14.00
63297;BMP280;49419;51.716;-4.948;2023-01-05T10:52:11;101463.75;;;14.08
63297;BMP280;49419;51.716;-4.948;2023-01-05T10:54:50;101468.13;;;14.11
63297;BMP280;49419;51.716;-4.948;2023-01-05T10:57:33;101467.97;;;14.06
63297;BMP280;49419;51.716;-4.948;2023-01-05T11:00:19;101474.09;;;14.10
63297;BMP280;49419;51.716;-4.948;2023-01-05T11:03:13;101461.19;;;14.10
63297;BMP280;49419;51.716;-4.948;2023-01-05T11:05:53;101462.97;;;14.11
63297;BMP280;49419;51.716;-4.948;2023-01-05T11:08:40;101450.72;;;14.05
63297;BMP280;49419;51.716;-4.948;2023-01-05T11:11:25;101458.59;;;14.10
63297;BMP280;49419;51.716;-4.948;2023-01-05T11:13:57;101446.34;;;14.03
63297;BMP280;49419;51.716;-4.948;2023-01-05T11:16:49;101440.25;;;14.01
63297;BMP280;49419;51.716;-4.948;2023-01-05T11:19:28;101446.44;;;14.06
63297;BMP280;49419;51.716;-4.948;2023-01-05T11:22:36;101438.78;;;14.09
63297;BMP280;49419;51.716;-4.948;2023-01-05T11:25:31;101444.03;;;14.10
63297;BMP280;49419;51.716;-4.948;2023-01-05T11:28:24;101449.13;;;14.09
63297;BMP280;49419;51.716;-4.948;2023-01-05T11:31:00;101438.78;;;14.09
63297;BMP280;49419;51.716;-4.948;2023-01-05T11:33:32;101425.72;;;14.04
63297;BMP280;49419;51.716;-4.948;2023-01-05T11:36:08;101429.44;;;14.12
63297;BMP280;49419;51.716;-4.948;2023-01-05T11:39:14;101416.59;;;14.14
63297;BMP280;49419;51.716;-4.948;2023-01-05T11:42:29;101399.28;;;14.11
63297;BMP280;49419;51.716;-4.948;2023-01-05T11:50:51;101401.97;;;14.14
63297;BMP280;49419;51.716;-4.948;2023-01-05T11:53:40;101392.34;;;14.09
63297;BMP280;49419;51.716;-4.948;2023-01-05T11:59:02;101399.38;;;14.13
63297;BMP280;49419;51.716;-4.948;2023-01-05T12:07:42;101397.50;;;14.09
63297;BMP280;49419;51.716;-4.948;2023-01-05T12:19:33;101361.53;;;14.14
63297;BMP280;49419;51.716;-4.948;2023-01-05T12:22:28;101367.69;;;14.18
63297;BMP280;49419;51.716;-4.948;2023-01-05T12:43:04;101303.53;;;14.30
63297;BMP280;49419;51.716;-4.948;2023-01-05T12:48:59;101303.94;;;14.42
63297;BMP280;49419;51.716;-4.948;2023-01-05T12:51:41;101300.66;;;14.47
63297;BMP280;49419;51.716;-4.948;2023-01-05T12:54:48;101282.63;;;14.48
63297;BMP280;49419;51.716;-4.948;2023-01-05T12:57:33;101279.34;;;14.54
63297;BMP280;49419;51.716;-4.948;2023-01-05T13:00:20;101260.38;;;14.53
63297;BMP280;49419;51.716;-4.948;2023-01-05T13:03:12;101238.94;;;14.56
63297;BMP280;49419;51.716;-4.948;2023-01-05T13:06:00;101246.25;;;14.70
63297;BMP280;49419;51.716;-4.948;2023-01-05T13:11:06;101236.72;;;14.68
63297;BMP280;49419;51.716;-4.948;2023-01-05T13:13:48;101239.38;;;14.71
63297;BMP280;49419;51.716;-4.948;2023-01-05T13:16:31;101244.38;;;14.65
63297;BMP280;49419;51.716;-4.948;2023-01-05T13:19:20;101212.25;;;14.57
63297;BMP280;49419;51.716;-4.948;2023-01-05T13:21:51;101228.75;;;14.62
63297;BMP280;49419;51.716;-4.948;2023-01-05T13:24:30;101229.81;;;14.68
63297;BMP280;49419;51.716;-4.948;2023-01-05T13:26:58;101228.03;;;14.66
63297;BMP280;49419;51.716;-4.948;2023-01-05T13:29:31;101234.59;;;14.55
63297;BMP280;49419;51.716;-4.948;2023-01-05T13:32:53;101255.03;;;14.47
63297;BMP280;49419;51.716;-4.948;2023-01-05T13:39:11;101256.66;;;14.44
63297;BMP280;49419;51.716;-4.948;2023-01-05T13:42:28;101237.66;;;14.42
63297;BMP280;49419;51.716;-4.948;2023-01-05T13:54:14;101219.81;;;14.22
63297;BMP280;49419;51.716;-4.948;2023-01-05T13:57:20;101218.25;;;14.27
63297;BMP280;49419;51.716;-4.948;2023-01-05T13:59:56;101215.63;;;14.25
63297;BMP280;49419;51.716;-4.948;2023-01-05T14:02:36;101208.72;;;14.24
63297;BMP280;49419;51.716;-4.948;2023-01-05T14:08:26;101195.59;;;14.18
63297;BMP280;49419;51.716;-4.948;2023-01-05T14:11:27;101214.75;;;14.25
63297;BMP280;49419;51.716;-4.948;2023-01-05T14:14:26;101200.03;;;14.22
63297;BMP280;49419;51.716;-4.948;2023-01-05T14:16:59;101177.41;;;14.14
63297;BMP280;49419;51.716;-4.948;2023-01-05T14:22:36;101184.53;;;14.22
63297;BMP280;49419;51.716;-4.948;2023-01-05T14:34:14;101157.66;;;14.16
63297;BMP280;49419;51.716;-4.948;2023-01-05T14:40:00;101148.22;;;14.16
63297;BMP280;49419;51.716;-4.948;2023-01-05T14:42:50;101146.47;;;14.15
63297;BMP280;49419;51.716;-4.948;2023-01-05T14:45:55;101135.13;;;14.11
63297;BMP280;49419;51.716;-4.948;2023-01-05T14:49:03;101122.03;;;14.05
63297;BMP280;49419;51.716;-4.948;2023-01-05T14:51:58;101121.22;;;14.06
63297;BMP280;49419;51.716;-4.948;2023-01-05T14:57:35;101101.22;;;13.99
63297;BMP280;49419;51.716;-4.948;2023-01-05T15:06:14;101103.06;;;14.03
63297;BMP280;49419;51.716;-4.948;2023-01-05T15:09:21;101103.97;;;14.05
63297;BMP280;49419;51.716;-4.948;2023-01-05T15:30:21;101065.72;;;13.92
63297;BMP280;49419;51.716;-4.948;2023-01-05T15:33:00;101074.41;;;13.95
63297;BMP280;49419;51.716;-4.948;2023-01-05T15:35:52;101064.09;;;13.95
63297;BMP280;49419;51.716;-4.948;2023-01-05T15:38:55;101069.94;;;13.90
63297;BMP280;49419;51.716;-4.948;2023-01-05T15:41:30;101060.50;;;13.90
63297;BMP280;49419;51.716;-4.948;2023-01-05T15:44:05;101067.56;;;13.96
63297;BMP280;49419;51.716;-4.948;2023-01-05T15:46:41;101058.84;;;13.92
63297;BMP280;49419;51.716;-4.948;2023-01-05T15:54:35;101053.75;;;13.94
63297;BMP280;49419;51.716;-4.948;2023-01-05T15:57:19;101036.28;;;13.85
63297;BMP280;49419;51.716;-4.948;2023-01-05T15:59:53;101044.16;;;13.90
63297;BMP280;49419;51.716;-4.948;2023-01-05T16:02:49;101031.09;;;13.85
63297;BMP280;49419;51.716;-4.948;2023-01-05T16:05:38;101034.53;;;13.84
63297;BMP280;49419;51.716;-4.948;2023-01-05T16:08:14;101020.78;;;13.84
63297;BMP280;49419;51.716;-4.948;2023-01-05T16:11:02;101002.59;;;13.81
63297;BMP280;49419;51.716;-4.948;2023-01-05T16:13:43;101014.59;;;13.79
63297;BMP280;49419;51.716;-4.948;2023-01-05T16:19:33;101003.53;;;13.83
63297;BMP280;49419;51.716;-4.948;2023-01-05T16:28:31;100978.50;;;13.79
63297;BMP280;49419;51.716;-4.948;2023-01-05T16:31:02;100981.78;;;13.75
63297;BMP280;49419;51.716;-4.948;2023-01-05T16:33:38;100993.84;;;13.76
63297;BMP280;49419;51.716;-4.948;2023-01-05T16:36:21;101000.84;;;13.80
63297;BMP280;49419;51.716;-4.948;2023-01-05T16:39:13;100992.28;;;13.81
63297;BMP280;49419;51.716;-4.948;2023-01-05T16:42:20;100998.41;;;13.84
63297;BMP280;49419;51.716;-4.948;2023-01-05T16:45:25;100992.38;;;13.84
63297;BMP280;49419;51.716;-4.948;2023-01-05T16:48:00;100968.16;;;13.79
63297;BMP280;49419;51.716;-4.948;2023-01-05T16:53:11;100970.97;;;13.86
63297;BMP280;49419;51.716;-4.948;2023-01-05T16:55:39;100968.31;;;13.83
63297;BMP280;49419;51.716;-4.948;2023-01-05T16:58:32;100963.94;;;13.82
63297;BMP280;49419;51.716;-4.948;2023-01-05T17:01:32;100959.78;;;13.86
63297;BMP280;49419;51.716;-4.948;2023-01-05T17:04:12;100956.34;;;13.87
63297;BMP280;49419;51.716;-4.948;2023-01-05T17:06:49;100940.69;;;13.81
63297;BMP280;49419;51.716;-4.948;2023-01-05T17:09:30;100950.25;;;13.83
63297;BMP280;49419;51.716;-4.948;2023-01-05T17:11:59;100946.81;;;13.84
63297;BMP280;49419;51.716;-4.948;2023-01-05T17:14:33;100933.72;;;13.77
63297;BMP280;49419;51.716;-4.948;2023-01-05T17:17:02;100931.41;;;13.87
63297;BMP280;49419;51.716;-4.948;2023-01-05T17:19:28;100945.09;;;13.85
63297;BMP280;49419;51.716;-4.948;2023-01-05T17:21:56;100920.03;;;13.81
63297;BMP280;49419;51.716;-4.948;2023-01-05T17:24:32;100912.16;;;13.75
63297;BMP280;49419;51.716;-4.948;2023-01-05T17:27:08;100906.25;;;13.79
63297;BMP280;49419;51.716;-4.948;2023-01-05T17:29:42;100926.19;;;13.84
63297;BMP280;49419;51.716;-4.948;2023-01-05T17:32:16;100908.84;;;13.79
63297;BMP280;49419;51.716;-4.948;2023-01-05T17:35:24;100917.47;;;13.81
63297;BMP280;49419;51.716;-4.948;2023-01-05T17:37:58;100872.53;;;13.72
63297;BMP280;49419;51.716;-4.948;2023-01-05T17:40:26;100911.28;;;13.75
63297;BMP280;49419;51.716;-4.948;2023-01-05T17:42:59;100912.03;;;13.71
63297;BMP280;49419;51.716;-4.948;2023-01-05T17:45:46;100916.47;;;13.76
63297;BMP280;49419;51.716;-4.948;2023-01-05T17:48:17;100908.72;;;13.75
63297;BMP280;49419;51.716;-4.948;2023-01-05T17:50:44;100904.50;;;13.78
63297;BMP280;49419;51.716;-4.948;2023-01-05T17:53:14;100882.84;;;13.72